Time,TemperatureF,DewpointF,PressureIn,WindDirection,WindDirectionDegrees,WindSpeedMPH,WindSpeedGustMPH,Humidity,HourlyPrecipIn,Conditions,Clouds,dailyrainin,SoftwareType,DateUTC
2013-01-07 00:00:00,35.4,34.7,30.20,WNW,294,0.0,0.0,97,0.00,,,-99.99,Weather View 32 v60,2013-01-07 08:00:00,
2013-01-07 00:10:00,35.4,34.7,30.20,WNW,294,0.0,0.0,97,0.00,,,-99.99,Weather View 32 v60,2013-01-07 08:10:00,
2013-01-07 00:19:00,35.2,34.5,30.20,WNW,294,0.0,0.0,97,0.00,,,-99.99,Weather View 32 v60,2013-01-07 08:19:00,
2013-01-07 00:30:00,35.2,34.5,30.20,WNW,294,0.0,0.0,97,0.00,,,-99.99,Weather View 32 v60,2013-01-07 08:30:00,
2013-01-07 00:40:00,34.9,34.1,30.20,WNW,294,0.0,0.0,97,0.00,,,-99.99,Weather View 32 v60,2013-01-07 08:40:00,
2013-01-07 00:45:00,34.9,34.1,30.20,WNW,294,0.0,0.0,97,0.00,,,-99.99,Weather View 32 v60,2013-01-07 08:45:00,
2013-01-07 01:00:00,34.5,33.8,30.20,WNW,294,0.0,0.0,97,0.00,,,-99.99,Weather View 32 v60,2013-01-07 09:00:00,
2013-01-07 01:10:00,34.7,33.9,30.20,WNW,294,0.0,0.0,97,0.00,,,-99.99,Weather View 32 v60,2013-01-07 09:10:00,
2013-01-07 01:20:00,34.9,34.1,30.20,WNW,294,0.0,0.0,97,0.00,,,-99.99,Weather View 32 v60,2013-01-07 09:20:00,
2013-01-07 01:30:00,34.7,33.9,30.20,WNW,294,0.0,0.0,97,0.00,,,-99.99,Weather View 32 v60,2013-01-07 09:30:00,
2013-01-07 01:40:00,34.5,33.8,30.20,WNW,294,0.0,0.0,97,0.00,,,-99.99,Weather View 32 v60,2013-01-07 09:40:00,
2013-01-07 01:46:00,34.5,33.8,30.20,WNW,294,0.0,0.0,97,0.00,,,-99.99,Weather View 32 v60,2013-01-07 09:46:00,
2013-01-07 02:00:00,34.9,34.1,30.20,WNW,294,0.0,0.0,97,0.00,,,-99.99,Weather View 32 v60,2013-01-07 10:00:00,
2013-01-07 02:10:00,34.9,34.1,30.20,WNW,294,0.0,0.0,97,0.00,,,-99.99,Weather View 32 v60,2013-01-07 10:10:00,
2013-01-07 02:19:00,34.7,33.9,30.20,WNW,294,0.0,0.0,97,0.00,,,-99.99,Weather View 32 v60,2013-01-07 10:19:00,
2013-01-07 02:30:00,34.3,33.6,30.20,WNW,294,0.0,0.0,97,0.00,,,-99.99,Weather View 32 v60,2013-01-07 10:30:00,
2013-01-07 02:40:00,34.3,33.6,30.20,WNW,294,0.0,0.0,97,0.00,,,-99.99,Weather View 32 v60,2013-01-07 10:40:00,
2013-01-07 02:46:00,34.3,33.6,30.20,WNW,294,0.0,0.0,97,0.00,,,-99.99,Weather View 32 v60,2013-01-07 10:46:00,
2013-01-07 03:00:00,34.5,33.8,30.20,WNW,294,0.0,0.0,97,0.00,,,-99.99,Weather View 32 v60,2013-01-07 11:00:00,
2013-01-07 03:10:00,34.9,34.1,30.20,WNW,294,0.0,0.0,97,0.00,,,-99.99,Weather View 32 v60,2013-01-07 11:10:00,
2013-01-07 03:20:00,34.9,34.1,30.23,WNW,294,0.0,0.0,97,0.00,,,-99.99,Weather View 32 v60,2013-01-07 11:20:00,
2013-01-07 03:30:00,35.1,34.3,30.23,WNW,294,0.0,0.0,97,0.00,,,-99.99,Weather View 32 v60,2013-01-07 11:30:00,
2013-01-07 03:40:00,35.1,34.3,30.23,WNW,294,0.0,0.0,97,0.00,,,-99.99,Weather View 32 v60,2013-01-07 11:40:00,
2013-01-07 03:47:00,35.1,34.3,30.23,WNW,294,0.0,0.0,97,0.00,,,-99.99,Weather View 32 v60,2013-01-07 11:47:00,
2013-01-07 04:00:00,35.1,34.3,30.23,WNW,294,0.0,0.0,97,0.00,,,-99.99,Weather View 32 v60,2013-01-07 12:00:00,
2013-01-07 04:10:00,35.1,34.3,30.23,WNW,294,0.0,0.0,97,0.00,,,-99.99,Weather View 32 v60,2013-01-07 12:10:00,
2013-01-07 04:20:00,34.7,33.9,30.23,WNW,294,0.0,0.0,97,0.00,,,-99.99,Weather View 32 v60,2013-01-07 12:20:00,
2013-01-07 04:30:00,34.7,33.9,30.23,WNW,294,0.0,0.0,97,0.00,,,-99.99,Weather View 32 v60,2013-01-07 12:30:00,
2013-01-07 04:40:00,34.9,34.1,30.23,WNW,294,0.0,0.0,97,0.00,,,-99.99,Weather View 32 v60,2013-01-07 12:40:00,
2013-01-07 04:47:00,34.9,34.1,30.23,WNW,294,0.0,0.0,97,0.00,,,-99.99,Weather View 32 v60,2013-01-07 12:47:00,
2013-01-07 05:00:00,34.9,34.1,30.23,WNW,294,0.0,0.0,97,0.00,,,-99.99,Weather View 32 v60,2013-01-07 13:00:00,
2013-01-07 05:10:00,34.9,34.1,30.23,WNW,294,0.0,0.0,97,0.00,,,-99.99,Weather View 32 v60,2013-01-07 13:10:00,
2013-01-07 05:20:00,34.9,34.1,30.23,WNW,294,0.0,0.0,97,0.00,,,-99.99,Weather View 32 v60,2013-01-07 13:20:00,
2013-01-07 05:30:00,34.9,34.1,30.23,NW,321,0.0,0.0,97,0.00,,,-99.99,Weather View 32 v60,2013-01-07 13:30:00,
2013-01-07 05:40:00,35.1,34.3,30.23,NW,321,0.0,0.0,97,0.00,,,-99.99,Weather View 32 v60,2013-01-07 13:40:00,
2013-01-07 05:48:00,35.1,34.3,30.23,NW,321,0.0,0.0,97,0.00,,,-99.99,Weather View 32 v60,2013-01-07 13:48:00,
2013-01-07 06:00:00,35.1,34.3,30.23,NW,321,0.0,0.0,97,0.00,,,-99.99,Weather View 32 v60,2013-01-07 14:00:00,
2013-01-07 06:10:00,35.1,34.3,30.23,NW,321,0.0,0.0,97,0.00,,,-99.99,Weather View 32 v60,2013-01-07 14:10:00,
2013-01-07 06:20:00,35.1,34.3,30.23,NW,321,0.0,0.0,97,0.00,,,-99.99,Weather View 32 v60,2013-01-07 14:20:00,
2013-01-07 06:30:00,35.4,34.7,30.23,NW,321,0.0,0.0,97,0.00,,,-99.99,Weather View 32 v60,2013-01-07 14:30:00,
2013-01-07 06:40:00,35.4,34.7,30.23,NW,321,0.0,0.0,97,0.00,,,-99.99,Weather View 32 v60,2013-01-07 14:40:00,
2013-01-07 06:48:00,35.4,34.7,30.23,NW,321,0.0,0.0,97,0.00,,,-99.99,Weather View 32 v60,2013-01-07 14:48:00,
2013-01-07 06:59:00,35.4,34.7,30.26,NW,321,0.0,0.0,97,0.00,,,-99.99,Weather View 32 v60,2013-01-07 14:59:00,
2013-01-07 07:09:00,35.6,34.8,30.26,NW,321,0.0,0.0,97,0.00,,,-99.99,Weather View 32 v60,2013-01-07 15:09:00,
2013-01-07 07:19:00,35.6,34.8,30.23,NW,321,0.0,0.0,97,0.00,,,-99.99,Weather View 32 v60,2013-01-07 15:19:00,
2013-01-07 07:30:00,35.6,34.8,30.26,NW,321,0.0,0.0,97,0.00,,,-99.99,Weather View 32 v60,2013-01-07 15:30:00,
2013-01-07 07:39:00,35.2,34.5,30.26,NW,321,0.0,0.0,97,0.00,,,-99.99,Weather View 32 v60,2013-01-07 15:39:00,
2013-01-07 07:49:00,35.2,34.5,30.26,NW,321,0.0,0.0,97,0.00,,,-99.99,Weather View 32 v60,2013-01-07 15:49:00,
2013-01-07 07:59:00,35.8,35.0,30.26,NW,321,0.0,0.0,97,0.00,,,-99.99,Weather View 32 v60,2013-01-07 15:59:00,
2013-01-07 08:10:00,35.8,35.0,30.26,NW,321,0.0,0.0,97,0.00,,,-99.99,Weather View 32 v60,2013-01-07 16:10:00,
2013-01-07 08:20:00,36.1,35.4,30.23,NW,321,0.0,0.0,97,0.00,,,-99.99,Weather View 32 v60,2013-01-07 16:20:00,
2013-01-07 08:29:00,36.1,35.4,30.26,NW,321,0.0,0.0,97,0.00,,,-99.99,Weather View 32 v60,2013-01-07 16:29:00,
2013-01-07 08:39:00,36.3,35.5,30.26,NW,321,0.0,0.0,97,0.00,,,-99.99,Weather View 32 v60,2013-01-07 16:39:00,
2013-01-07 08:50:00,36.7,35.9,30.26,NW,321,0.0,0.0,97,0.00,,,-99.99,Weather View 32 v60,2013-01-07 16:50:00,
2013-01-07 08:59:00,37.2,36.4,30.26,NW,321,0.0,0.0,97,0.00,,,-99.99,Weather View 32 v60,2013-01-07 16:59:00,
2013-01-07 09:10:00,37.6,36.8,30.26,NW,321,0.0,0.0,97,0.00,,,-99.99,Weather View 32 v60,2013-01-07 17:10:00,
2013-01-07 09:19:00,37.9,37.2,30.26,NW,320,0.0,0.0,97,0.00,,,-99.99,Weather View 32 v60,2013-01-07 17:19:00,
2013-01-07 09:29:00,38.1,37.3,30.29,NW,321,0.0,0.0,97,0.00,,,-99.99,Weather View 32 v60,2013-01-07 17:29:00,
2013-01-07 09:39:00,38.7,37.9,30.29,NW,321,0.0,0.0,97,0.00,,,-99.99,Weather View 32 v60,2013-01-07 17:39:00,
2013-01-07 09:49:00,39.4,38.6,30.29,NW,321,0.0,0.0,97,0.00,,,-99.99,Weather View 32 v60,2013-01-07 17:49:00,
2013-01-07 10:00:00,40.1,39.3,30.26,NW,321,0.0,0.0,97,0.00,,,-99.99,Weather View 32 v60,2013-01-07 18:00:00,
2013-01-07 10:10:00,39.9,39.1,30.26,NW,321,0.0,0.0,97,0.00,,,-99.99,Weather View 32 v60,2013-01-07 18:10:00,
2013-01-07 10:20:00,40.1,39.3,30.29,NW,321,0.0,0.0,97,0.00,,,-99.99,Weather View 32 v60,2013-01-07 18:20:00,
2013-01-07 10:29:00,41.7,40.9,30.29,NW,321,0.0,0.0,97,0.00,,,-99.99,Weather View 32 v60,2013-01-07 18:29:00,
2013-01-07 10:39:00,0.0,0.0,30.29,NW,321,0.0,0.0,0,0.00,,,-99.99,Weather View 32 v60,2013-01-07 18:39:00,
2013-01-07 10:49:00,43.3,42.3,30.29,NW,321,0.0,0.0,96,0.00,,,-99.99,Weather View 32 v60,2013-01-07 18:49:00,
2013-01-07 11:00:00,44.6,43.0,30.29,NNW,338,0.0,0.0,94,0.00,,,-99.99,Weather View 32 v60,2013-01-07 19:00:00,
2013-01-07 11:10:00,45.5,41.2,30.29,North,3,0.0,0.0,85,0.00,,,-99.99,Weather View 32 v60,2013-01-07 19:10:00,
2013-01-07 11:20:00,47.3,42.4,30.26,NE,39,0.0,0.0,83,0.00,,,-99.99,Weather View 32 v60,2013-01-07 19:20:00,
2013-01-07 11:30:00,48.9,42.3,30.23,NE,40,0.0,0.0,78,0.00,,,-99.99,Weather View 32 v60,2013-01-07 19:30:00,
2013-01-07 11:40:00,50.4,40.6,30.23,NE,42,0.0,0.0,69,0.00,,,-99.99,Weather View 32 v60,2013-01-07 19:40:00,
2013-01-07 11:50:00,51.1,42.0,30.23,NE,40,0.0,0.0,71,0.00,,,-99.99,Weather View 32 v60,2013-01-07 19:50:00,
2013-01-07 12:00:00,52.0,42.5,30.20,ENE,75,0.0,0.0,70,0.00,,,-99.99,Weather View 32 v60,2013-01-07 20:00:00,
2013-01-07 12:10:00,53.1,40.8,30.20,ENE,67,0.0,0.0,63,0.00,,,-99.99,Weather View 32 v60,2013-01-07 20:10:00,
2013-01-07 12:20:00,53.8,41.0,30.23,NNE,20,0.0,0.0,62,0.00,,,-99.99,Weather View 32 v60,2013-01-07 20:20:00,
2013-01-07 12:30:00,54.3,40.3,30.20,North,356,0.0,0.0,59,0.00,,,-99.99,Weather View 32 v60,2013-01-07 20:30:00,
2013-01-07 12:40:00,55.6,40.6,30.20,North,356,0.0,0.0,57,0.00,,,-99.99,Weather View 32 v60,2013-01-07 20:40:00,
2013-01-07 12:50:00,56.3,39.4,30.20,North,2,0.0,0.0,53,0.00,,,-99.99,Weather View 32 v60,2013-01-07 20:50:00,
2013-01-07 12:52:00,56.3,39.4,30.20,North,2,0.0,0.0,53,0.00,,,-99.99,Weather View 32 v60,2013-01-07 20:52:00,
2013-01-07 13:00:00,57.0,39.0,30.20,NNW,341,0.0,0.0,51,0.00,,,-99.99,Weather View 32 v60,2013-01-07 21:00:00,
2013-01-07 13:10:00,57.9,39.9,30.20,NNW,341,0.0,0.0,51,0.00,,,-99.99,Weather View 32 v60,2013-01-07 21:10:00,
2013-01-07 13:20:00,58.8,40.7,30.20,NNW,341,0.0,0.0,51,0.00,,,-99.99,Weather View 32 v60,2013-01-07 21:20:00,
2013-01-07 13:30:00,59.0,39.3,30.20,NW,311,0.0,0.0,48,0.00,,,-99.99,Weather View 32 v60,2013-01-07 21:30:00,
2013-01-07 13:40:00,59.4,39.6,30.20,NW,315,0.0,0.0,48,0.00,,,-99.99,Weather View 32 v60,2013-01-07 21:40:00,
2013-01-07 13:50:00,59.7,39.4,30.20,WSW,252,0.0,0.0,47,0.00,,,-99.99,Weather View 32 v60,2013-01-07 21:50:00,
2013-01-07 14:00:00,61.0,40.0,30.20,WSW,252,0.0,0.0,46,0.00,,,-99.99,Weather View 32 v60,2013-01-07 22:00:00,
2013-01-07 14:10:00,61.3,40.3,30.20,SW,225,0.0,0.0,46,0.00,,,-99.99,Weather View 32 v60,2013-01-07 22:10:00,
2013-01-07 14:20:00,61.2,39.0,30.17,SW,216,0.0,0.0,44,0.00,,,-99.99,Weather View 32 v60,2013-01-07 22:20:00,
2013-01-07 14:30:00,60.4,39.5,30.20,SSW,193,0.0,0.0,46,0.00,,,-99.99,Weather View 32 v60,2013-01-07 22:30:00,
2013-01-07 14:40:00,61.0,39.4,30.20,SSW,193,0.0,0.0,45,0.00,,,-99.99,Weather View 32 v60,2013-01-07 22:40:00,
2013-01-07 14:50:00,61.0,40.6,30.17,SE,140,0.0,0.0,47,0.00,,,-99.99,Weather View 32 v60,2013-01-07 22:50:00,
2013-01-07 15:00:00,60.8,40.4,30.20,SE,140,0.0,0.0,47,0.00,,,-99.99,Weather View 32 v60,2013-01-07 23:00:00,
2013-01-07 15:10:00,60.8,40.9,30.20,SE,140,0.0,0.0,48,0.00,,,-99.99,Weather View 32 v60,2013-01-07 23:10:00,
2013-01-07 15:20:00,60.4,39.5,30.17,SE,140,0.0,0.0,46,0.00,,,-99.99,Weather View 32 v60,2013-01-07 23:20:00,
2013-01-07 15:30:00,60.1,39.7,30.20,SE,140,0.0,0.0,47,0.00,,,-99.99,Weather View 32 v60,2013-01-07 23:30:00,
2013-01-07 15:40:00,59.5,39.8,30.20,SE,140,0.0,0.0,48,0.00,,,-99.99,Weather View 32 v60,2013-01-07 23:40:00,
2013-01-07 15:50:00,59.2,40.0,30.17,SE,140,0.0,0.0,49,0.00,,,-99.99,Weather View 32 v60,2013-01-07 23:50:00,
2013-01-07 15:59:00,58.6,40.5,30.17,SE,140,0.0,0.0,51,0.00,,,-99.99,Weather View 32 v60,2013-01-07 23:59:00,
2013-01-07 16:09:00,58.1,40.5,30.17,SE,137,0.0,0.0,52,0.00,,,-99.99,Weather View 32 v60,2013-01-08 00:09:00,
2013-01-07 16:19:00,57.6,40.5,30.17,SE,137,0.0,0.0,53,0.00,,,-99.99,Weather View 32 v60,2013-01-08 00:19:00,
2013-01-07 16:29:00,57.0,40.5,30.17,SE,137,0.0,0.0,54,0.00,,,-99.99,Weather View 32 v60,2013-01-08 00:29:00,
2013-01-07 16:39:00,56.5,40.5,30.17,SE,137,0.0,0.0,55,0.00,,,-99.99,Weather View 32 v60,2013-01-08 00:39:00,
2013-01-07 16:49:00,55.6,41.0,30.17,SE,137,0.0,0.0,58,0.00,,,-99.99,Weather View 32 v60,2013-01-08 00:49:00,
2013-01-07 16:59:00,54.9,41.2,30.17,SE,137,0.0,0.0,60,0.00,,,-99.99,Weather View 32 v60,2013-01-08 00:59:00,
2013-01-07 17:09:00,53.8,43.1,30.17,ENE,68,0.0,0.0,67,0.00,,,-99.99,Weather View 32 v60,2013-01-08 01:09:00,
2013-01-07 17:19:00,53.1,42.8,30.20,East,87,0.0,0.0,68,0.00,,,-99.99,Weather View 32 v60,2013-01-08 01:19:00,
2013-01-07 17:29:00,52.3,43.9,30.20,ENE,77,0.0,0.0,73,0.00,,,-99.99,Weather View 32 v60,2013-01-08 01:29:00,
2013-01-07 17:39:00,51.4,43.8,30.20,East,98,0.0,0.0,75,0.00,,,-99.99,Weather View 32 v60,2013-01-08 01:39:00,
2013-01-07 17:49:00,50.7,43.1,30.20,East,94,0.0,0.0,75,0.00,,,-99.99,Weather View 32 v60,2013-01-08 01:49:00,
2013-01-07 17:54:00,50.7,43.1,30.20,East,94,0.0,0.0,75,0.00,,,-99.99,Weather View 32 v60,2013-01-08 01:54:00,
2013-01-07 17:59:00,50.2,42.9,30.20,ENE,70,0.0,0.0,76,0.00,,,-99.99,Weather View 32 v60,2013-01-08 01:59:00,
2013-01-07 18:09:00,49.8,42.5,30.20,ENE,70,0.0,0.0,76,0.00,,,-99.99,Weather View 32 v60,2013-01-08 02:09:00,
2013-01-07 18:20:00,49.5,42.5,30.20,ENE,70,0.0,0.0,77,0.00,,,-99.99,Weather View 32 v60,2013-01-08 02:20:00,
2013-01-07 18:29:00,49.3,42.4,30.17,ENE,70,0.0,0.0,77,0.00,,,-99.99,Weather View 32 v60,2013-01-08 02:29:00,
2013-01-07 18:40:00,48.9,42.3,30.17,ENE,70,0.0,0.0,78,0.00,,,-99.99,Weather View 32 v60,2013-01-08 02:40:00,
2013-01-07 18:49:00,48.4,42.2,30.17,ENE,70,0.0,0.0,79,0.00,,,-99.99,Weather View 32 v60,2013-01-08 02:49:00,
2013-01-07 18:55:00,48.4,42.2,30.17,ENE,70,0.0,0.0,79,0.00,,,-99.99,Weather View 32 v60,2013-01-08 02:55:00,
2013-01-07 19:10:00,47.7,41.8,30.17,ENE,70,0.0,0.0,80,0.00,,,-99.99,Weather View 32 v60,2013-01-08 03:10:00,
2013-01-07 19:19:00,47.3,41.8,30.17,ENE,70,0.0,0.0,81,0.00,,,-99.99,Weather View 32 v60,2013-01-08 03:19:00,
2013-01-07 19:30:00,46.9,42.0,30.17,ENE,70,0.0,0.0,83,0.00,,,-99.99,Weather View 32 v60,2013-01-08 03:30:00,
2013-01-07 19:39:00,46.8,42.2,30.17,ENE,70,0.0,0.0,84,0.00,,,-99.99,Weather View 32 v60,2013-01-08 03:39:00,
2013-01-07 19:50:00,46.4,41.8,30.20,ENE,70,0.0,0.0,84,0.00,,,-99.99,Weather View 32 v60,2013-01-08 03:50:00,
2013-01-07 19:56:00,46.4,41.8,30.20,ENE,70,0.0,0.0,84,0.00,,,-99.99,Weather View 32 v60,2013-01-08 03:56:00,
2013-01-07 20:10:00,46.0,41.8,30.20,ENE,70,0.0,0.0,85,0.00,,,-99.99,Weather View 32 v60,2013-01-08 04:10:00,
2013-01-07 20:19:00,45.9,41.6,30.20,ENE,70,0.0,0.0,85,0.00,,,-99.99,Weather View 32 v60,2013-01-08 04:19:00,
2013-01-07 20:30:00,45.5,41.5,30.20,ENE,70,0.0,0.0,86,0.00,,,-99.99,Weather View 32 v60,2013-01-08 04:30:00,
2013-01-07 20:39:00,45.3,41.4,30.20,ENE,70,0.0,0.0,86,0.00,,,-99.99,Weather View 32 v60,2013-01-08 04:39:00,
2013-01-07 20:50:00,45.0,41.3,30.20,ENE,70,0.0,0.0,87,0.00,,,-99.99,Weather View 32 v60,2013-01-08 04:50:00,
2013-01-07 20:56:00,45.0,41.3,30.20,ENE,70,0.0,0.0,87,0.00,,,-99.99,Weather View 32 v60,2013-01-08 04:56:00,
2013-01-07 21:09:00,44.2,40.6,30.20,ENE,70,0.0,0.0,87,0.00,,,-99.99,Weather View 32 v60,2013-01-08 05:09:00,
2013-01-07 21:20:00,43.9,40.6,30.20,ENE,70,0.0,0.0,88,0.00,,,-99.99,Weather View 32 v60,2013-01-08 05:20:00,
2013-01-07 21:29:00,43.5,40.5,30.20,ENE,70,0.0,0.0,89,0.00,,,-99.99,Weather View 32 v60,2013-01-08 05:29:00,
2013-01-07 21:40:00,43.3,40.3,30.20,ENE,70,0.0,0.0,89,0.00,,,-99.99,Weather View 32 v60,2013-01-08 05:40:00,
2013-01-07 21:49:00,43.2,40.4,30.20,ENE,70,0.0,0.0,90,0.00,,,-99.99,Weather View 32 v60,2013-01-08 05:49:00,
2013-01-07 21:57:00,43.2,40.4,30.20,ENE,70,0.0,0.0,90,0.00,,,-99.99,Weather View 32 v60,2013-01-08 05:57:00,
2013-01-07 22:09:00,42.6,40.2,30.20,ENE,70,0.0,0.0,91,0.00,,,-99.99,Weather View 32 v60,2013-01-08 06:09:00,
2013-01-07 22:20:00,42.4,40.0,30.20,ENE,70,0.0,0.0,91,0.00,,,-99.99,Weather View 32 v60,2013-01-08 06:20:00,
2013-01-07 22:29:00,42.3,40.1,30.20,ENE,70,0.0,0.0,92,0.00,,,-99.99,Weather View 32 v60,2013-01-08 06:29:00,
2013-01-07 22:40:00,42.1,39.9,30.20,ENE,70,0.0,0.0,92,0.00,,,-99.99,Weather View 32 v60,2013-01-08 06:40:00,
2013-01-07 22:49:00,41.7,39.8,30.20,ENE,70,0.0,0.0,93,0.00,,,-99.99,Weather View 32 v60,2013-01-08 06:49:00,
2013-01-07 22:57:00,41.7,39.8,30.20,ENE,70,0.0,0.0,93,0.00,,,-99.99,Weather View 32 v60,2013-01-08 06:57:00,
2013-01-07 23:10:00,41.5,39.7,30.20,ENE,70,0.0,0.0,93,0.00,,,-99.99,Weather View 32 v60,2013-01-08 07:10:00,
2013-01-07 23:19:00,41.4,39.5,30.20,ENE,70,0.0,0.0,93,0.00,,,-99.99,Weather View 32 v60,2013-01-08 07:19:00,
2013-01-07 23:30:00,41.2,39.6,30.20,ENE,70,0.0,0.0,94,0.00,,,-99.99,Weather View 32 v60,2013-01-08 07:30:00,
2013-01-07 23:39:00,41.0,39.4,30.20,ENE,70,0.0,0.0,94,0.00,,,-99.99,Weather View 32 v60,2013-01-08 07:39:00,
2013-01-07 23:50:00,41.0,39.4,30.20,ENE,70,0.0,0.0,94,0.00,,,-99.99,Weather View 32 v60,2013-01-08 07:50:00,
2013-01-07 23:58:00,41.0,39.4,30.20,ENE,70,0.0,0.0,94,0.00,,,-99.99,Weather View 32 v60,2013-01-08 07:58:00,